Terminal Aerodrome Forecast
Issued by NWS

Home | Current Version | Previous Version | Graphics & Text | Print | Product List | Glossary On
Versions: 1 2 3 4 5 6 7 8 9 10 11 12 13 14
000
FTUS43 KICT 251736 AAB
TAFRSL
TAF AMD
KRSL 251736Z 2518/2618 17020G30KT P6SM FEW110
     FM260000 15012KT P6SM SCT090
     FM260300 04010KT P6SM VCTS SCT040CB BKN090
     FM260600 09007KT P6SM BKN090
     FM260800 VRB05KT P6SM SCT040 BKN080
     FM261000 33005KT P6SM SCT015 BKN040
     FM261600 02010KT P6SM SCT040=

USA.gov is the U.S. government's official web portal to all federal, state and local government web resources and services.